• Join FlightAware (Why Join?)
  • Login
  • US Flag 
03:09AM EST


 

Airport Tracker/Info


-or-


 

Live Flight TrackerFlight Track Log ✈ FLG4158 ✈ 03-Jul-2013 ✈ KDTW - KIAD

Flight Track Log - Related Links

Times and Time Zones

All times are in EDT time to prevent confusion due to time zone crossing. See the FLG4158 flight status page for this flight to view local times or setup timezone preferences in your user account.

Time Position Orientation Groundspeed Altitude Reporting Facility
EDT Latitude Longitude Course Direction KTS MPH feet Rate Location/Type
02:46PM 42.2017 -83.3583 102° East 154 177 1,300  Level Cleveland Center
02:47PM 42.1239 -83.3856 195° South 237 273 3,900 2,160 Climbing Cleveland Center
02:48PM 42.0569 -83.3939 185° South 253 291 6,900 2,640 Climbing Cleveland Center
02:49PM 42.1195 -82.7586 114° Southeast  Level FlightAware Approximate
02:49PM 42.0256 -83.3114 117° Southeast 295 339 9,200  Level Cleveland Center
02:50PM 42.1024 -82.6075 98° East  Level FlightAware Approximate
02:50PM 42.0369 -83.1806 83° East 351 404 10,100  Level Cleveland Center
02:51PM 42.0822 -82.4595 102° East  Level FlightAware Approximate
02:51PM 42.0458 -83.0578 84° East 366 421 11,000  Level Cleveland Center
02:52PM 42.0594 -82.9100 83° East 372 428 12,900 960 Climbing Cleveland Center
02:53PM 42.0808 -82.7767 78° East 408 470 13,000 1,080 Climbing Cleveland Center
02:54PM 42.0814 -82.6256 90° East 407 468 15,000 1,800 Climbing Cleveland Center
02:55PM 42.0861 -82.4800 87° East 397 457 16,600 1,320 Climbing Cleveland Center
02:56PM 42.0653 -82.3369 101° East 391 450 17,700 900 Climbing Cleveland Center
02:57PM 42.0425 -82.1936 102° East 385 443 18,500 840 Climbing Cleveland Center
02:58PM 42.0089 -82.0475 107° East 396 456 19,400 1,020 Climbing Cleveland Center
02:59PM 41.9225 -81.9672 145° Southeast 369 425 20,600 1,260 Climbing Cleveland Center
03:00PM 41.8336 -81.8931 148° Southeast 380 437 22,000 1,320 Climbing Cleveland Center
03:01PM 41.7383 -81.8436 159° South 373 429 23,300 1,020 Climbing Cleveland Center
03:02PM 41.6450 -81.7892 156° South 368 423 24,100 720 Climbing Cleveland Center
03:03PM 41.5497 -81.7289 155° Southeast 376 433 24,800 420 Climbing Cleveland Center
03:04PM 41.4544 -81.6719 156° South 376 433 25,000 60 Climbing Cleveland Center
03:05PM 41.3633 -81.6122 154° Southeast 382 440 25,000  Level Cleveland Center
03:06PM 41.2617 -81.5528 156° South 395 455 25,000  Level Cleveland Center
03:07PM 41.1581 -81.4906 156° South 400 460 25,000  Level Cleveland Center
03:08PM 41.0417 -81.4228 156° South 407 468 25,000  Level Cleveland Center
03:09PM 40.9400 -81.3636 156° South 413 475 25,000  Level Cleveland Center
03:10PM 40.8508 -81.3078 155° Southeast 382 440 25,000  Level Cleveland Center
03:11PM 40.7636 -81.2575 156° South 351 404 25,000  Level Cleveland Center
03:12PM 40.6783 -81.2044 155° Southeast 343 395 25,000  Level Cleveland Center
03:13PM 40.5994 -81.1600 157° South 338 389 25,000  Level Cleveland Center
03:14PM 40.5183 -81.1047 153° Southeast 338 389 25,000  Level Cleveland Center
03:15PM 40.4500 -81.0142 135° Southeast 338 389 25,000  Level Cleveland Center
03:16PM 40.3772 -80.9211 136° Southeast 349 402 25,000  Level Cleveland Center
03:17PM 40.3025 -80.8228 135° Southeast 362 417 25,000  Level Cleveland Center
03:18PM 40.2233 -80.7217 136° Southeast 384 442 25,000  Level Cleveland Center
03:19PM 40.1506 -80.6047 129° Southeast 399 459 25,000  Level Cleveland Center
03:20PM 40.0775 -80.4828 128° Southeast 420 483 25,000  Level Cleveland Center
03:21PM 40.0044 -80.3608 128° Southeast 425 489 25,000  Level Cleveland Center
03:22PM 39.9292 -80.2392 129° Southeast 430 495 25,000  Level Cleveland Center
03:24PM 39.8147 -80.0461 128° Southeast 422 486 25,000  Level Washington Center
03:25PM 39.7419 -79.9256 128° Southeast 422 486 25,000  Level Washington Center
03:26PM 39.6753 -79.8136 128° Southeast 427 491 25,000  Level Washington Center
03:27PM 39.6000 -79.6933 129° Southeast 427 491 25,000 -180 Level Washington Center
03:28PM 39.5292 -79.5764 128° Southeast 427 491 24,700 -540 Descending Washington Center
03:29PM 39.4836 -79.4394 113° Southeast 420 483 24,000 -660 Descending Washington Center
03:30PM 39.4567 -79.2956 104° East 408 470 23,400 -840 Descending Washington Center
03:31PM 39.4281 -79.1436 104° East 398 458 22,300 -1,200 Descending Washington Center
03:32PM 39.4028 -79.0028 103° East 398 458 21,100 -1,380 Descending Washington Center
03:33PM 39.3775 -78.8672 104° East 398 458 19,600 -1,620 Descending Washington Center
03:34PM 39.3539 -78.7372 103° East 393 452 17,900 -1,740 Descending Washington Center
03:35PM 39.3300 -78.6103 104° East 377 434 16,100 -2,100 Descending Washington Center
03:36PM 39.3081 -78.4858 103° East 358 412 13,700 -2,340 Descending Washington Center
03:37PM 39.2817 -78.3642 106° East 358 412 11,500 -1,380 Descending Washington Center
03:38PM 39.2358 -78.2714 123° Southeast 332 382 11,000 -660 Descending Washington Center
03:39PM 39.1900 -78.1811 123° Southeast 307 353 10,200 -900 Descending Washington Center
03:40PM 39.1436 -78.0992 126° Southeast 299 344 9,300 -720 Descending Washington Center
03:41PM 39.0994 -78.0147 124° Southeast 288 331 8,800 -780 Descending Washington Center
03:42PM 39.0594 -77.9386 124° Southeast 283 326 7,800 -900 Descending Washington Center
03:43PM 39.0231 -77.8708 125° Southeast 270 311 7,000 -900 Descending Washington Center
03:44PM 38.9808 -77.7892 124° Southeast 254 292 6,000 -300 Descending Washington Center
03:46PM 38.9833 -77.6000 89° East 275 316 6,100  Climbing Potomac TRACON
03:47PM 39.0500 -77.5667 21° North 271 312 6,000 -300 Descending Potomac TRACON
03:48PM 39.1167 -77.5667 360° North 231 266 5,500 -480 Descending Potomac TRACON
03:49PM 39.1833 -77.5833 349° North 228 262 5,100 -360 Descending Potomac TRACON
03:50PM 39.2333 -77.5667 14° North 237 273 4,900 -540 Descending Potomac TRACON
03:51PM 39.2333 -77.4833 90° East 228 262 4,100 -600 Descending Potomac TRACON
03:52PM 39.2000 -77.4500 142° Southeast 185 213 3,700 -240 Descending Potomac TRACON
03:53PM 39.1500 -77.4500 180° South 175 201 3,700 -540 Level Potomac TRACON
03:54PM 39.1000 -77.4500 180° South 177 204 2,700 -1,020 Descending Potomac TRACON